KPVW/PVW METAR and TAF weather

Enter ICAO airport designator
Station Type Date Time Source
KPVW METAR 2020/01/27 16:55 UTC NOAA

KPVW 271655Z AUTO 23005KT 10SM CLR 10/01 A2991 RMK AO2 T01000010


Station Type Date Time Source
KPVW Decoded METAR 2020/01/27 16:55 UTC NOAA

Plainview, Hale County Airport, TX, United States (KPVW) 34-10-05N 101-43-02W
Jan 27, 2020 - 11:55 AM EST / 2020.01.27 1655 UTC
Wind: from the SW (230 degrees) at 6 MPH (5 KT):0
Visibility: 10 mile(s):0
Sky conditions: clear
Temperature: 50.0 F (10.0 C)
Dew Point: 33.8 F (1.0 C)
Relative Humidity: 53%
Pressure (altimeter): 29.91 in. Hg (1012 hPa)
ob: KPVW 271655Z AUTO 23005KT 10SM CLR 10/01 A2991 RMK AO2 T01000010
cycle: 17

Station Type Date Time Source
KPVW TAF 2020/01/27 12:22 UTC NOAA

TAF KPVW 271120Z 2712/2812 24011KT P6SM SCT250
FM280800 36020KT P6SM OVC015

Example: see airport list